sensor_id;sensor_type;location;lat;lon;timestamp;temperature;humidity
32293;DHT22;43233;48.608;8.838;2023-03-23T00:01:21;12.50;48.10
32293;DHT22;43233;48.608;8.838;2023-03-23T00:03:50;12.50;48.10
32293;DHT22;43233;48.608;8.838;2023-03-23T00:06:20;12.50;48.40
32293;DHT22;43233;48.608;8.838;2023-03-23T00:08:50;12.50;48.20
32293;DHT22;43233;48.608;8.838;2023-03-23T00:11:23;12.50;48.20
32293;DHT22;43233;48.608;8.838;2023-03-23T00:13:52;12.50;48.20
32293;DHT22;43233;48.608;8.838;2023-03-23T00:16:24;12.60;47.60
32293;DHT22;43233;48.608;8.838;2023-03-23T00:19:05;12.70;47.70
32293;DHT22;43233;48.608;8.838;2023-03-23T00:21:37;12.60;47.40
32293;DHT22;43233;48.608;8.838;2023-03-23T00:24:12;12.70;47.20
32293;DHT22;43233;48.608;8.838;2023-03-23T00:26:41;12.70;46.90
32293;DHT22;43233;48.608;8.838;2023-03-23T00:31:41;12.70;47.00
32293;DHT22;43233;48.608;8.838;2023-03-23T00:34:12;12.80;47.00
32293;DHT22;43233;48.608;8.838;2023-03-23T00:36:38;12.80;47.10
32293;DHT22;43233;48.608;8.838;2023-03-23T00:39:08;12.80;47.20
32293;DHT22;43233;48.608;8.838;2023-03-23T00:41:33;12.80;47.20
32293;DHT22;43233;48.608;8.838;2023-03-23T00:44:02;12.90;47.50
32293;DHT22;43233;48.608;8.838;2023-03-23T00:46:27;12.90;47.50
32293;DHT22;43233;48.608;8.838;2023-03-23T00:48:55;12.90;47.60
32293;DHT22;43233;48.608;8.838;2023-03-23T00:51:22;12.90;47.80
32293;DHT22;43233;48.608;8.838;2023-03-23T00:53:48;12.80;48.00
32293;DHT22;43233;48.608;8.838;2023-03-23T00:56:14;12.90;48.10
32293;DHT22;43233;48.608;8.838;2023-03-23T00:58:40;12.80;48.20
32293;DHT22;43233;48.608;8.838;2023-03-23T01:01:05;12.80;48.90
32293;DHT22;43233;48.608;8.838;2023-03-23T01:03:31;12.70;49.60
32293;DHT22;43233;48.608;8.838;2023-03-23T01:05:57;12.70;50.00
32293;DHT22;43233;48.608;8.838;2023-03-23T01:08:23;12.60;50.10
32293;DHT22;43233;48.608;8.838;2023-03-23T01:10:49;12.50;50.50
32293;DHT22;43233;48.608;8.838;2023-03-23T01:13:16;12.40;51.10
32293;DHT22;43233;48.608;8.838;2023-03-23T01:15:42;12.30;51.90
32293;DHT22;43233;48.608;8.838;2023-03-23T01:18:09;12.30;52.20
32293;DHT22;43233;48.608;8.838;2023-03-23T01:20:36;12.10;53.30
32293;DHT22;43233;48.608;8.838;2023-03-23T01:23:03;12.00;52.60
32293;DHT22;43233;48.608;8.838;2023-03-23T01:25:30;12.00;53.00
32293;DHT22;43233;48.608;8.838;2023-03-23T01:27:57;11.90;52.50
32293;DHT22;43233;48.608;8.838;2023-03-23T01:30:23;11.90;52.30
32293;DHT22;43233;48.608;8.838;2023-03-23T01:32:49;11.90;51.70
32293;DHT22;43233;48.608;8.838;2023-03-23T01:35:15;11.90;51.50
32293;DHT22;43233;48.608;8.838;2023-03-23T01:37:41;11.90;51.10
32293;DHT22;43233;48.608;8.838;2023-03-23T01:40:08;11.90;51.00
32293;DHT22;43233;48.608;8.838;2023-03-23T01:42:35;12.00;50.80
32293;DHT22;43233;48.608;8.838;2023-03-23T01:50:40;12.10;50.80
32293;DHT22;43233;48.608;8.838;2023-03-23T01:53:08;12.20;50.70
32293;DHT22;43233;48.608;8.838;2023-03-23T01:55:36;12.20;50.80
32293;DHT22;43233;48.608;8.838;2023-03-23T01:58:03;12.20;50.80
32293;DHT22;43233;48.608;8.838;2023-03-23T02:00:30;12.20;50.80
32293;DHT22;43233;48.608;8.838;2023-03-23T02:02:56;12.20;50.90
32293;DHT22;43233;48.608;8.838;2023-03-23T02:05:30;12.10;51.10
32293;DHT22;43233;48.608;8.838;2023-03-23T02:07:58;12.10;51.10
32293;DHT22;43233;48.608;8.838;2023-03-23T02:10:31;12.10;51.30
32293;DHT22;43233;48.608;8.838;2023-03-23T02:12:58;12.10;51.20
32293;DHT22;43233;48.608;8.838;2023-03-23T02:15:27;12.10;51.50
32293;DHT22;43233;48.608;8.838;2023-03-23T02:18:16;12.10;51.60
32293;DHT22;43233;48.608;8.838;2023-03-23T02:20:57;12.00;51.90
32293;DHT22;43233;48.608;8.838;2023-03-23T02:23:45;12.00;52.20
32293;DHT22;43233;48.608;8.838;2023-03-23T02:34:30;12.10;53.10
32293;DHT22;43233;48.608;8.838;2023-03-23T02:37:10;12.10;53.00
32293;DHT22;43233;48.608;8.838;2023-03-23T02:39:45;12.00;53.40
32293;DHT22;43233;48.608;8.838;2023-03-23T02:42:18;12.00;53.40
32293;DHT22;43233;48.608;8.838;2023-03-23T02:44:46;12.10;53.30
32293;DHT22;43233;48.608;8.838;2023-03-23T02:47:17;12.00;53.10
32293;DHT22;43233;48.608;8.838;2023-03-23T02:49:46;12.00;53.20
32293;DHT22;43233;48.608;8.838;2023-03-23T02:52:17;12.00;53.40
32293;DHT22;43233;48.608;8.838;2023-03-23T02:54:47;11.90;53.70
32293;DHT22;43233;48.608;8.838;2023-03-23T02:57:13;11.90;53.50
32293;DHT22;43233;48.608;8.838;2023-03-23T02:59:39;11.90;53.50
32293;DHT22;43233;48.608;8.838;2023-03-23T03:02:17;11.90;53.50
32293;DHT22;43233;48.608;8.838;2023-03-23T03:04:51;11.90;53.40
32293;DHT22;43233;48.608;8.838;2023-03-23T03:10:27;11.90;54.00
32293;DHT22;43233;48.608;8.838;2023-03-23T03:13:22;11.90;54.10
32293;DHT22;43233;48.608;8.838;2023-03-23T03:16:02;11.90;54.10
32293;DHT22;43233;48.608;8.838;2023-03-23T03:21:28;12.00;53.70
32293;DHT22;43233;48.608;8.838;2023-03-23T03:23:57;12.00;53.70
32293;DHT22;43233;48.608;8.838;2023-03-23T03:26:27;12.10;53.50
32293;DHT22;43233;48.608;8.838;2023-03-23T03:28:53;12.20;54.30
32293;DHT22;43233;48.608;8.838;2023-03-23T03:31:29;12.20;53.30
32293;DHT22;43233;48.608;8.838;2023-03-23T03:33:56;12.10;53.40
32293;DHT22;43233;48.608;8.838;2023-03-23T03:36:30;12.10;53.50
32293;DHT22;43233;48.608;8.838;2023-03-23T03:39:08;12.10;53.70
32293;DHT22;43233;48.608;8.838;2023-03-23T03:41:35;12.10;53.80
32293;DHT22;43233;48.608;8.838;2023-03-23T03:44:05;12.10;53.60
32293;DHT22;43233;48.608;8.838;2023-03-23T03:46:32;12.10;53.80
32293;DHT22;43233;48.608;8.838;2023-03-23T03:48:59;12.10;53.80
32293;DHT22;43233;48.608;8.838;2023-03-23T03:51:27;12.10;54.40
32293;DHT22;43233;48.608;8.838;2023-03-23T03:53:53;12.20;53.10
32293;DHT22;43233;48.608;8.838;2023-03-23T03:56:19;12.10;53.10
32293;DHT22;43233;48.608;8.838;2023-03-23T03:58:48;12.20;52.90
32293;DHT22;43233;48.608;8.838;2023-03-23T04:01:16;12.20;52.80
32293;DHT22;43233;48.608;8.838;2023-03-23T04:03:42;12.20;52.50
32293;DHT22;43233;48.608;8.838;2023-03-23T04:06:08;12.20;52.60
32293;DHT22;43233;48.608;8.838;2023-03-23T04:08:35;12.30;52.80
32293;DHT22;43233;48.608;8.838;2023-03-23T04:11:01;12.30;52.90
32293;DHT22;43233;48.608;8.838;2023-03-23T04:13:26;12.30;52.90
32293;DHT22;43233;48.608;8.838;2023-03-23T04:15:52;12.30;52.60
32293;DHT22;43233;48.608;8.838;2023-03-23T04:18:18;12.30;52.80
32293;DHT22;43233;48.608;8.838;2023-03-23T04:20:46;12.30;52.70
32293;DHT22;43233;48.608;8.838;2023-03-23T04:23:14;12.30;52.80
32293;DHT22;43233;48.608;8.838;2023-03-23T04:25:39;12.40;52.70
32293;DHT22;43233;48.608;8.838;2023-03-23T04:28:07;12.30;52.90
32293;DHT22;43233;48.608;8.838;2023-03-23T04:30:35;12.30;52.90
32293;DHT22;43233;48.608;8.838;2023-03-23T04:33:02;12.30;52.50
32293;DHT22;43233;48.608;8.838;2023-03-23T04:35:28;12.40;52.30
32293;DHT22;43233;48.608;8.838;2023-03-23T04:37:55;12.40;52.40
32293;DHT22;43233;48.608;8.838;2023-03-23T04:40:22;12.30;52.40
32293;DHT22;43233;48.608;8.838;2023-03-23T04:42:48;12.40;52.20
32293;DHT22;43233;48.608;8.838;2023-03-23T04:45:17;12.50;51.70
32293;DHT22;43233;48.608;8.838;2023-03-23T04:47:48;12.60;51.50
32293;DHT22;43233;48.608;8.838;2023-03-23T04:50:20;12.60;51.30
32293;DHT22;43233;48.608;8.838;2023-03-23T04:52:47;12.50;51.30
32293;DHT22;43233;48.608;8.838;2023-03-23T04:55:13;12.50;51.70
32293;DHT22;43233;48.608;8.838;2023-03-23T04:57:39;12.40;51.90
32293;DHT22;43233;48.608;8.838;2023-03-23T05:00:06;12.50;52.20
32293;DHT22;43233;48.608;8.838;2023-03-23T05:02:38;12.50;52.30
32293;DHT22;43233;48.608;8.838;2023-03-23T05:05:07;12.40;52.90
32293;DHT22;43233;48.608;8.838;2023-03-23T05:07:34;12.50;52.10
32293;DHT22;43233;48.608;8.838;2023-03-23T05:09:59;12.50;51.90
32293;DHT22;43233;48.608;8.838;2023-03-23T05:12:25;12.60;51.90
32293;DHT22;43233;48.608;8.838;2023-03-23T05:14:52;12.60;51.60
32293;DHT22;43233;48.608;8.838;2023-03-23T05:17:17;12.60;51.50
32293;DHT22;43233;48.608;8.838;2023-03-23T05:19:44;12.60;51.70
32293;DHT22;43233;48.608;8.838;2023-03-23T05:22:14;12.70;51.80
32293;DHT22;43233;48.608;8.838;2023-03-23T05:24:40;12.70;51.80
32293;DHT22;43233;48.608;8.838;2023-03-23T05:27:05;12.70;51.90
32293;DHT22;43233;48.608;8.838;2023-03-23T05:29:34;12.60;51.70
32293;DHT22;43233;48.608;8.838;2023-03-23T05:32:02;12.60;52.00
32293;DHT22;43233;48.608;8.838;2023-03-23T05:34:29;12.60;51.90
32293;DHT22;43233;48.608;8.838;2023-03-23T05:36:58;12.70;52.00
32293;DHT22;43233;48.608;8.838;2023-03-23T05:39:23;12.70;51.40
32293;DHT22;43233;48.608;8.838;2023-03-23T05:41:50;12.60;52.10
32293;DHT22;43233;48.608;8.838;2023-03-23T05:44:16;12.60;52.10
32293;DHT22;43233;48.608;8.838;2023-03-23T05:46:41;12.60;52.10
32293;DHT22;43233;48.608;8.838;2023-03-23T05:49:08;12.60;52.20
32293;DHT22;43233;48.608;8.838;2023-03-23T05:51:34;12.70;52.30
32293;DHT22;43233;48.608;8.838;2023-03-23T05:54:01;12.70;52.10
32293;DHT22;43233;48.608;8.838;2023-03-23T05:56:27;12.70;52.00
32293;DHT22;43233;48.608;8.838;2023-03-23T05:58:57;12.70;52.10
32293;DHT22;43233;48.608;8.838;2023-03-23T06:01:24;12.60;52.20
32293;DHT22;43233;48.608;8.838;2023-03-23T06:03:50;12.60;52.20
32293;DHT22;43233;48.608;8.838;2023-03-23T06:06:20;12.70;52.20
32293;DHT22;43233;48.608;8.838;2023-03-23T06:08:46;12.70;52.50
32293;DHT22;43233;48.608;8.838;2023-03-23T06:11:13;12.70;52.30
32293;DHT22;43233;48.608;8.838;2023-03-23T06:13:39;12.60;52.40
32293;DHT22;43233;48.608;8.838;2023-03-23T06:16:05;12.60;53.00
32293;DHT22;43233;48.608;8.838;2023-03-23T06:18:31;12.60;53.10
32293;DHT22;43233;48.608;8.838;2023-03-23T06:20:59;12.60;53.10
32293;DHT22;43233;48.608;8.838;2023-03-23T06:23:26;12.60;53.20
32293;DHT22;43233;48.608;8.838;2023-03-23T06:25:57;12.60;53.90
32293;DHT22;43233;48.608;8.838;2023-03-23T06:28:23;12.60;53.90
32293;DHT22;43233;48.608;8.838;2023-03-23T06:30:49;12.60;53.70
32293;DHT22;43233;48.608;8.838;2023-03-23T06:33:15;12.50;54.10
32293;DHT22;43233;48.608;8.838;2023-03-23T06:35:42;12.50;54.20
32293;DHT22;43233;48.608;8.838;2023-03-23T06:38:08;12.50;54.40
32293;DHT22;43233;48.608;8.838;2023-03-23T06:40:34;12.60;54.20
32293;DHT22;43233;48.608;8.838;2023-03-23T06:43:04;12.60;54.30
32293;DHT22;43233;48.608;8.838;2023-03-23T06:45:30;12.60;54.60
32293;DHT22;43233;48.608;8.838;2023-03-23T06:47:56;12.60;54.80
32293;DHT22;43233;48.608;8.838;2023-03-23T06:50:22;12.60;55.10
32293;DHT22;43233;48.608;8.838;2023-03-23T06:52:50;12.60;55.20
32293;DHT22;43233;48.608;8.838;2023-03-23T06:55:16;12.50;55.50
32293;DHT22;43233;48.608;8.838;2023-03-23T06:57:43;12.50;55.60
32293;DHT22;43233;48.608;8.838;2023-03-23T07:00:10;12.50;55.30
32293;DHT22;43233;48.608;8.838;2023-03-23T07:02:39;12.60;55.30
32293;DHT22;43233;48.608;8.838;2023-03-23T07:05:06;12.60;55.80
32293;DHT22;43233;48.608;8.838;2023-03-23T07:07:32;12.70;55.20
32293;DHT22;43233;48.608;8.838;2023-03-23T07:09:58;12.80;55.10
32293;DHT22;43233;48.608;8.838;2023-03-23T07:12:24;12.90;55.10
32293;DHT22;43233;48.608;8.838;2023-03-23T07:14:49;12.80;55.50
32293;DHT22;43233;48.608;8.838;2023-03-23T07:17:15;12.80;55.60
32293;DHT22;43233;48.608;8.838;2023-03-23T07:19:41;12.80;54.90
32293;DHT22;43233;48.608;8.838;2023-03-23T07:22:07;12.90;55.70
32293;DHT22;43233;48.608;8.838;2023-03-23T07:24:34;12.80;55.90
32293;DHT22;43233;48.608;8.838;2023-03-23T07:27:00;12.80;56.10
32293;DHT22;43233;48.608;8.838;2023-03-23T07:29:26;12.80;56.50
32293;DHT22;43233;48.608;8.838;2023-03-23T07:31:52;12.80;56.70
32293;DHT22;43233;48.608;8.838;2023-03-23T07:34:18;12.80;56.90
32293;DHT22;43233;48.608;8.838;2023-03-23T07:36:44;12.80;56.80
32293;DHT22;43233;48.608;8.838;2023-03-23T07:39:11;12.80;57.10
32293;DHT22;43233;48.608;8.838;2023-03-23T07:41:37;12.90;57.60
32293;DHT22;43233;48.608;8.838;2023-03-23T07:44:03;12.90;58.20
32293;DHT22;43233;48.608;8.838;2023-03-23T07:46:29;12.90;58.00
32293;DHT22;43233;48.608;8.838;2023-03-23T07:48:55;13.00;58.30
32293;DHT22;43233;48.608;8.838;2023-03-23T07:51:22;13.00;58.80
32293;DHT22;43233;48.608;8.838;2023-03-23T07:53:48;13.00;58.80
32293;DHT22;43233;48.608;8.838;2023-03-23T07:56:14;13.00;59.50
32293;DHT22;43233;48.608;8.838;2023-03-23T07:58:44;13.10;58.60
32293;DHT22;43233;48.608;8.838;2023-03-23T08:01:10;13.10;59.30
32293;DHT22;43233;48.608;8.838;2023-03-23T08:03:36;13.10;59.20
32293;DHT22;43233;48.608;8.838;2023-03-23T08:06:02;13.10;59.90
32293;DHT22;43233;48.608;8.838;2023-03-23T08:08:28;13.10;59.50
32293;DHT22;43233;48.608;8.838;2023-03-23T08:10:55;13.10;60.40
32293;DHT22;43233;48.608;8.838;2023-03-23T08:13:21;13.10;60.00
32293;DHT22;43233;48.608;8.838;2023-03-23T08:15:46;13.20;60.90
32293;DHT22;43233;48.608;8.838;2023-03-23T08:18:12;13.20;60.50
32293;DHT22;43233;48.608;8.838;2023-03-23T08:20:38;13.20;61.10
32293;DHT22;43233;48.608;8.838;2023-03-23T08:23:04;13.20;61.40
32293;DHT22;43233;48.608;8.838;2023-03-23T08:25:30;13.20;62.20
32293;DHT22;43233;48.608;8.838;2023-03-23T08:28:00;13.20;62.50
32293;DHT22;43233;48.608;8.838;2023-03-23T08:30:30;13.20;61.80
32293;DHT22;43233;48.608;8.838;2023-03-23T08:32:58;13.20;62.30
32293;DHT22;43233;48.608;8.838;2023-03-23T08:35:24;13.20;61.70
32293;DHT22;43233;48.608;8.838;2023-03-23T08:37:50;13.20;62.40
32293;DHT22;43233;48.608;8.838;2023-03-23T08:40:19;13.20;62.40
32293;DHT22;43233;48.608;8.838;2023-03-23T08:42:46;13.20;62.40
32293;DHT22;43233;48.608;8.838;2023-03-23T08:45:14;13.30;62.70
32293;DHT22;43233;48.608;8.838;2023-03-23T08:47:42;13.20;62.30
32293;DHT22;43233;48.608;8.838;2023-03-23T08:50:14;13.10;63.50
32293;DHT22;43233;48.608;8.838;2023-03-23T08:52:41;13.20;64.70
32293;DHT22;43233;48.608;8.838;2023-03-23T08:55:07;13.20;62.70
32293;DHT22;43233;48.608;8.838;2023-03-23T08:57:34;13.20;63.10
32293;DHT22;43233;48.608;8.838;2023-03-23T09:00:02;13.30;63.40
32293;DHT22;43233;48.608;8.838;2023-03-23T09:02:38;13.30;63.20
32293;DHT22;43233;48.608;8.838;2023-03-23T09:05:04;13.30;63.10
32293;DHT22;43233;48.608;8.838;2023-03-23T09:07:30;13.40;63.20
32293;DHT22;43233;48.608;8.838;2023-03-23T09:09:56;13.40;62.60
32293;DHT22;43233;48.608;8.838;2023-03-23T09:12:21;13.40;62.10
32293;DHT22;43233;48.608;8.838;2023-03-23T09:14:47;13.30;63.10
32293;DHT22;43233;48.608;8.838;2023-03-23T09:17:13;13.40;62.40
32293;DHT22;43233;48.608;8.838;2023-03-23T09:19:38;13.40;62.70
32293;DHT22;43233;48.608;8.838;2023-03-23T09:22:04;13.40;62.90
32293;DHT22;43233;48.608;8.838;2023-03-23T09:24:30;13.40;63.00
32293;DHT22;43233;48.608;8.838;2023-03-23T09:26:56;13.40;63.60
32293;DHT22;43233;48.608;8.838;2023-03-23T09:29:24;13.50;64.10
32293;DHT22;43233;48.608;8.838;2023-03-23T09:31:50;13.50;64.20
32293;DHT22;43233;48.608;8.838;2023-03-23T09:34:17;13.50;64.40
32293;DHT22;43233;48.608;8.838;2023-03-23T09:36:43;13.50;64.20
32293;DHT22;43233;48.608;8.838;2023-03-23T09:39:10;13.50;64.70
32293;DHT22;43233;48.608;8.838;2023-03-23T09:47:21;13.50;65.50
32293;DHT22;43233;48.608;8.838;2023-03-23T09:49:52;13.50;66.20
32293;DHT22;43233;48.608;8.838;2023-03-23T09:52:19;13.60;65.40
32293;DHT22;43233;48.608;8.838;2023-03-23T09:54:50;13.60;64.80
32293;DHT22;43233;48.608;8.838;2023-03-23T09:57:28;13.60;65.80
32293;DHT22;43233;48.608;8.838;2023-03-23T10:00:16;13.70;66.70
32293;DHT22;43233;48.608;8.838;2023-03-23T10:05:36;13.60;65.70
32293;DHT22;43233;48.608;8.838;2023-03-23T10:08:09;13.50;65.50
32293;DHT22;43233;48.608;8.838;2023-03-23T10:15:49;13.60;66.20
32293;DHT22;43233;48.608;8.838;2023-03-23T10:18:37;13.70;65.20
32293;DHT22;43233;48.608;8.838;2023-03-23T10:21:03;13.80;66.40
32293;DHT22;43233;48.608;8.838;2023-03-23T10:29:08;14.00;65.10
32293;DHT22;43233;48.608;8.838;2023-03-23T10:39:57;14.10;63.80
32293;DHT22;43233;48.608;8.838;2023-03-23T10:42:30;14.10;64.70
32293;DHT22;43233;48.608;8.838;2023-03-23T10:44:58;14.20;65.90
32293;DHT22;43233;48.608;8.838;2023-03-23T10:47:24;14.20;63.90
32293;DHT22;43233;48.608;8.838;2023-03-23T10:49:56;14.30;64.20
32293;DHT22;43233;48.608;8.838;2023-03-23T10:52:35;14.50;64.40
32293;DHT22;43233;48.608;8.838;2023-03-23T10:55:10;14.60;62.20
32293;DHT22;43233;48.608;8.838;2023-03-23T10:57:38;14.60;61.40
32293;DHT22;43233;48.608;8.838;2023-03-23T11:00:14;14.60;62.10
32293;DHT22;43233;48.608;8.838;2023-03-23T11:02:57;14.60;61.80
32293;DHT22;43233;48.608;8.838;2023-03-23T11:05:26;14.70;60.50
32293;DHT22;43233;48.608;8.838;2023-03-23T11:07:55;14.70;61.40
32293;DHT22;43233;48.608;8.838;2023-03-23T11:10:28;14.70;63.30
32293;DHT22;43233;48.608;8.838;2023-03-23T11:12:58;14.60;61.80
32293;DHT22;43233;48.608;8.838;2023-03-23T11:15:29;14.50;62.00
32293;DHT22;43233;48.608;8.838;2023-03-23T11:17:57;14.40;62.80
32293;DHT22;43233;48.608;8.838;2023-03-23T11:20:24;14.50;62.90
32293;DHT22;43233;48.608;8.838;2023-03-23T11:22:52;14.40;62.50
32293;DHT22;43233;48.608;8.838;2023-03-23T11:25:18;14.40;64.30
32293;DHT22;43233;48.608;8.838;2023-03-23T11:27:43;14.50;62.90
32293;DHT22;43233;48.608;8.838;2023-03-23T11:30:10;14.50;62.10
32293;DHT22;43233;48.608;8.838;2023-03-23T11:32:38;14.50;63.20
32293;DHT22;43233;48.608;8.838;2023-03-23T11:35:18;14.50;63.40
32293;DHT22;43233;48.608;8.838;2023-03-23T11:37:49;14.50;62.50
32293;DHT22;43233;48.608;8.838;2023-03-23T11:40:18;14.70;61.00
32293;DHT22;43233;48.608;8.838;2023-03-23T11:43:26;14.70;60.10
32293;DHT22;43233;48.608;8.838;2023-03-23T11:45:58;14.70;58.70
32293;DHT22;43233;48.608;8.838;2023-03-23T11:51:05;14.80;59.00
32293;DHT22;43233;48.608;8.838;2023-03-23T11:53:42;14.80;58.30
32293;DHT22;43233;48.608;8.838;2023-03-23T11:56:25;14.90;57.40
32293;DHT22;43233;48.608;8.838;2023-03-23T11:58:56;14.90;57.00
32293;DHT22;43233;48.608;8.838;2023-03-23T12:09:49;14.90;55.10
32293;DHT22;43233;48.608;8.838;2023-03-23T12:12:38;14.90;56.20
32293;DHT22;43233;48.608;8.838;2023-03-23T12:15:36;14.90;56.50
32293;DHT22;43233;48.608;8.838;2023-03-23T12:18:30;14.80;56.40
32293;DHT22;43233;48.608;8.838;2023-03-23T12:21:01;14.80;57.10
32293;DHT22;43233;48.608;8.838;2023-03-23T12:31:34;14.90;58.50
32293;DHT22;43233;48.608;8.838;2023-03-23T12:40:44;15.20;57.20
32293;DHT22;43233;48.608;8.838;2023-03-23T12:47:07;15.40;57.60
32293;DHT22;43233;48.608;8.838;2023-03-23T12:52:36;15.50;56.90
32293;DHT22;43233;48.608;8.838;2023-03-23T12:55:15;15.60;54.60
32293;DHT22;43233;48.608;8.838;2023-03-23T13:03:11;15.90;54.30
32293;DHT22;43233;48.608;8.838;2023-03-23T13:08:47;16.10;54.40
32293;DHT22;43233;48.608;8.838;2023-03-23T13:11:19;16.10;55.30
32293;DHT22;43233;48.608;8.838;2023-03-23T13:13:53;16.10;55.20
32293;DHT22;43233;48.608;8.838;2023-03-23T13:16:31;16.30;55.70
32293;DHT22;43233;48.608;8.838;2023-03-23T13:22:07;16.40;53.80
32293;DHT22;43233;48.608;8.838;2023-03-23T13:24:46;16.50;53.30
32293;DHT22;43233;48.608;8.838;2023-03-23T13:27:15;16.40;53.20
32293;DHT22;43233;48.608;8.838;2023-03-23T13:29:46;16.60;53.20
32293;DHT22;43233;48.608;8.838;2023-03-23T13:32:16;16.50;53.50
32293;DHT22;43233;48.608;8.838;2023-03-23T13:34:42;16.60;53.90
32293;DHT22;43233;48.608;8.838;2023-03-23T13:37:21;16.70;52.30
32293;DHT22;43233;48.608;8.838;2023-03-23T13:42:52;16.90;52.10
32293;DHT22;43233;48.608;8.838;2023-03-23T13:45:35;17.10;51.90
32293;DHT22;43233;48.608;8.838;2023-03-23T13:48:25;17.20;51.50
32293;DHT22;43233;48.608;8.838;2023-03-23T13:51:01;17.20;49.40
32293;DHT22;43233;48.608;8.838;2023-03-23T13:53:28;17.10;50.20
32293;DHT22;43233;48.608;8.838;2023-03-23T13:56:17;16.90;51.00
32293;DHT22;43233;48.608;8.838;2023-03-23T13:58:52;16.80;50.60
32293;DHT22;43233;48.608;8.838;2023-03-23T14:01:36;16.60;51.10
32293;DHT22;43233;48.608;8.838;2023-03-23T14:04:07;16.70;50.70
32293;DHT22;43233;48.608;8.838;2023-03-23T14:06:36;17.00;50.70
32293;DHT22;43233;48.608;8.838;2023-03-23T14:09:10;16.90;51.10
32293;DHT22;43233;48.608;8.838;2023-03-23T14:14:23;16.80;49.20
32293;DHT22;43233;48.608;8.838;2023-03-23T14:16:50;16.70;50.20
32293;DHT22;43233;48.608;8.838;2023-03-23T14:19:27;16.50;50.10
32293;DHT22;43233;48.608;8.838;2023-03-23T14:22:01;16.40;50.40
32293;DHT22;43233;48.608;8.838;2023-03-23T14:24:33;16.50;50.70
32293;DHT22;43233;48.608;8.838;2023-03-23T14:27:17;16.40;50.70
32293;DHT22;43233;48.608;8.838;2023-03-23T14:29:43;16.50;51.60
32293;DHT22;43233;48.608;8.838;2023-03-23T14:32:16;16.60;51.50
32293;DHT22;43233;48.608;8.838;2023-03-23T14:34:43;16.50;50.70
32293;DHT22;43233;48.608;8.838;2023-03-23T14:37:14;16.50;50.70
32293;DHT22;43233;48.608;8.838;2023-03-23T14:39:44;16.40;50.30
32293;DHT22;43233;48.608;8.838;2023-03-23T14:42:16;16.30;50.60
32293;DHT22;43233;48.608;8.838;2023-03-23T14:44:46;16.30;50.10
32293;DHT22;43233;48.608;8.838;2023-03-23T14:47:29;16.20;49.20
32293;DHT22;43233;48.608;8.838;2023-03-23T14:49:58;16.10;50.70
32293;DHT22;43233;48.608;8.838;2023-03-23T14:52:34;16.30;50.60
32293;DHT22;43233;48.608;8.838;2023-03-23T14:55:17;16.30;49.20
32293;DHT22;43233;48.608;8.838;2023-03-23T14:57:43;16.20;49.40
32293;DHT22;43233;48.608;8.838;2023-03-23T15:00:15;16.20;50.10
32293;DHT22;43233;48.608;8.838;2023-03-23T15:02:45;16.10;50.00
32293;DHT22;43233;48.608;8.838;2023-03-23T15:05:22;16.20;49.80
32293;DHT22;43233;48.608;8.838;2023-03-23T15:07:54;16.20;50.50
32293;DHT22;43233;48.608;8.838;2023-03-23T15:10:22;16.10;49.80
32293;DHT22;43233;48.608;8.838;2023-03-23T15:12:49;16.20;50.10
32293;DHT22;43233;48.608;8.838;2023-03-23T15:15:33;16.20;49.50
32293;DHT22;43233;48.608;8.838;2023-03-23T15:18:00;16.20;48.60
32293;DHT22;43233;48.608;8.838;2023-03-23T15:23:15;16.00;50.00
32293;DHT22;43233;48.608;8.838;2023-03-23T15:25:48;16.00;50.60
32293;DHT22;43233;48.608;8.838;2023-03-23T15:28:39;15.90;50.00
32293;DHT22;43233;48.608;8.838;2023-03-23T15:31:06;15.80;49.90
32293;DHT22;43233;48.608;8.838;2023-03-23T15:33:39;15.80;50.10
32293;DHT22;43233;48.608;8.838;2023-03-23T15:36:08;15.80;50.70
32293;DHT22;43233;48.608;8.838;2023-03-23T15:38:35;15.80;51.30
32293;DHT22;43233;48.608;8.838;2023-03-23T15:41:04;15.80;50.10
32293;DHT22;43233;48.608;8.838;2023-03-23T15:43:33;15.70;51.00
32293;DHT22;43233;48.608;8.838;2023-03-23T15:48:30;15.50;51.50
32293;DHT22;43233;48.608;8.838;2023-03-23T15:50:56;15.50;52.10
32293;DHT22;43233;48.608;8.838;2023-03-23T15:53:33;15.50;52.50
32293;DHT22;43233;48.608;8.838;2023-03-23T15:56:01;15.50;52.50
32293;DHT22;43233;48.608;8.838;2023-03-23T15:58:28;15.40;52.90
32293;DHT22;43233;48.608;8.838;2023-03-23T16:00:54;15.50;52.30
32293;DHT22;43233;48.608;8.838;2023-03-23T16:03:23;15.40;52.80
32293;DHT22;43233;48.608;8.838;2023-03-23T16:05:52;15.40;52.90
32293;DHT22;43233;48.608;8.838;2023-03-23T16:08:18;15.40;53.50
32293;DHT22;43233;48.608;8.838;2023-03-23T16:10:44;15.40;53.50
32293;DHT22;43233;48.608;8.838;2023-03-23T16:13:10;15.30;53.80
32293;DHT22;43233;48.608;8.838;2023-03-23T16:15:36;15.30;54.20
32293;DHT22;43233;48.608;8.838;2023-03-23T16:18:01;15.40;54.90
32293;DHT22;43233;48.608;8.838;2023-03-23T16:20:28;15.40;54.40
32293;DHT22;43233;48.608;8.838;2023-03-23T16:22:54;15.40;54.10
32293;DHT22;43233;48.608;8.838;2023-03-23T16:25:20;15.40;54.70
32293;DHT22;43233;48.608;8.838;2023-03-23T16:27:46;15.40;55.00
32293;DHT22;43233;48.608;8.838;2023-03-23T16:32:41;15.30;54.80
32293;DHT22;43233;48.608;8.838;2023-03-23T16:35:08;15.30;54.30
32293;DHT22;43233;48.608;8.838;2023-03-23T16:37:35;15.30;54.40
32293;DHT22;43233;48.608;8.838;2023-03-23T16:40:02;15.30;54.40
32293;DHT22;43233;48.608;8.838;2023-03-23T16:42:28;15.30;54.10
32293;DHT22;43233;48.608;8.838;2023-03-23T16:44:53;15.20;54.50
32293;DHT22;43233;48.608;8.838;2023-03-23T16:47:19;15.20;54.60
32293;DHT22;43233;48.608;8.838;2023-03-23T16:49:50;15.20;54.80
32293;DHT22;43233;48.608;8.838;2023-03-23T16:52:16;15.30;54.80
32293;DHT22;43233;48.608;8.838;2023-03-23T16:54:41;15.30;54.00
32293;DHT22;43233;48.608;8.838;2023-03-23T16:57:07;15.20;54.20
32293;DHT22;43233;48.608;8.838;2023-03-23T16:59:32;15.10;54.50
32293;DHT22;43233;48.608;8.838;2023-03-23T17:01:58;15.10;55.10
32293;DHT22;43233;48.608;8.838;2023-03-23T17:04:31;15.10;54.70
32293;DHT22;43233;48.608;8.838;2023-03-23T17:06:57;15.10;55.10
32293;DHT22;43233;48.608;8.838;2023-03-23T17:09:27;15.00;55.70
32293;DHT22;43233;48.608;8.838;2023-03-23T17:11:53;15.00;56.70
32293;DHT22;43233;48.608;8.838;2023-03-23T17:14:21;15.00;57.20
32293;DHT22;43233;48.608;8.838;2023-03-23T17:16:46;14.90;58.10
32293;DHT22;43233;48.608;8.838;2023-03-23T17:19:12;15.00;56.90
32293;DHT22;43233;48.608;8.838;2023-03-23T17:21:39;15.00;57.00
32293;DHT22;43233;48.608;8.838;2023-03-23T17:24:05;14.90;57.60
32293;DHT22;43233;48.608;8.838;2023-03-23T17:26:31;14.90;57.90
32293;DHT22;43233;48.608;8.838;2023-03-23T17:28:57;14.80;57.70
32293;DHT22;43233;48.608;8.838;2023-03-23T17:31:22;14.80;58.00